Pagrindinis puslapis
METAR-TAF:

METAR-TAF

Oro uostai :

Konsepsjonas, Čilė

platuma: 36-46S, ilguma: 073-03W, Aukštis: 12 m

Dabartinis oras

Ataskaita buvo paskelbta 12 minutes, ne 20:00 UTC
Vėjas 10 kt iš Pietvakarių
Temperatūra 17°C
Drėgmė 55%
Slėgis 1017 hPa
Matomumas 10 km arba daugiau
nėra debesų žemiau 1500 m ir nėra kamuolinių lietaus debesų

METAR: SCIE 222000Z 23010KT CAVOK 17/08 Q1017

Laikas: 17:12 (20:12 UTC)

Prognozė

Ataskaita buvo paskelbta 3 valandos ir 33 minutes, ne 16:39 UTC
Prognozė galioja nuo 22 metu 18 UTC su 23 metu 18 UTC
Vėjas 10 kt iš Pietvakarių
Matomumas 10 km arba daugiau
nėra debesų žemiau 1500 m ir nėra kamuolinių lietaus debesų
Tapsmas
nuo 23 metu 01 UTC su 23 metu 03 UTC
Vėjas 10 kt iš Pietų
Tapsmas
nuo 23 metu 09 UTC su 23 metu 11 UTC
Vėjas 5 kt iš Pietų/Pietvakarių
Laikinai
nuo 23 metu 15 UTC su 23 metu 17 UTC
Vėjas 13 kt iš Pietvakarių

TAF: SCIE 221639Z 2218/2318 23010KT CAVOK TX17/2219Z TN04/2311Z BECMG 2301/2303 17010KT BECMG 2309/2311 20005KT TEMPO 2315/2317 23013KT

Orai ataskaitas ir orų prognozės (METAR, TAF).

turimą stotys yra geltonos ir raudonos taškus žemėlapyje.

Perkelti pele per norėdami pamatyti stoties vardą.

Tada spustelėkite, norėdami matyti oro stebėjimo ir prognozės.

Norėdami pakeisti žemėlapį: spustelėkite ant žalios mygtukų su juodo kryžiaus žemyn,; žalią mygtuką su brūkšneliu, jei norite nutolinti; arba žalių rodyklių gretimoms žemėlapius.


METAR-TAF: